sensor_id;sensor_type;location;lat;lon;timestamp;pressure;altitude;pressure_sealevel;temperature
15680;BMP180;15488;48.114;11.532;2023-03-05T00:01:36;95512.00;;;10.80
15680;BMP180;15488;48.114;11.532;2023-03-05T00:04:06;95512.00;;;10.80
15680;BMP180;15488;48.114;11.532;2023-03-05T00:06:34;95519.00;;;10.80
15680;BMP180;15488;48.114;11.532;2023-03-05T00:09:04;95516.00;;;10.80
15680;BMP180;15488;48.114;11.532;2023-03-05T00:11:31;95512.00;;;10.90
15680;BMP180;15488;48.114;11.532;2023-03-05T00:14:00;95509.00;;;10.90
15680;BMP180;15488;48.114;11.532;2023-03-05T00:16:29;95505.00;;;10.90
15680;BMP180;15488;48.114;11.532;2023-03-05T00:18:58;95501.00;;;10.90
15680;BMP180;15488;48.114;11.532;2023-03-05T00:21:29;95499.00;;;10.90
15680;BMP180;15488;48.114;11.532;2023-03-05T00:24:17;95500.00;;;10.90
15680;BMP180;15488;48.114;11.532;2023-03-05T00:26:45;95502.00;;;10.90
15680;BMP180;15488;48.114;11.532;2023-03-05T00:29:15;95505.00;;;10.90
15680;BMP180;15488;48.114;11.532;2023-03-05T00:31:47;95501.00;;;10.90
15680;BMP180;15488;48.114;11.532;2023-03-05T00:34:16;95504.00;;;10.90
15680;BMP180;15488;48.114;11.532;2023-03-05T00:36:48;95492.00;;;10.90
15680;BMP180;15488;48.114;11.532;2023-03-05T00:39:21;95491.00;;;10.90
15680;BMP180;15488;48.114;11.532;2023-03-05T00:41:48;95489.00;;;10.90
15680;BMP180;15488;48.114;11.532;2023-03-05T00:44:16;95478.00;;;10.90
15680;BMP180;15488;48.114;11.532;2023-03-05T00:46:44;95477.00;;;10.90
15680;BMP180;15488;48.114;11.532;2023-03-05T00:49:13;95471.00;;;10.90
15680;BMP180;15488;48.114;11.532;2023-03-05T00:51:43;95477.00;;;10.80
15680;BMP180;15488;48.114;11.532;2023-03-05T00:54:11;95474.00;;;10.80
15680;BMP180;15488;48.114;11.532;2023-03-05T00:56:40;95468.00;;;10.80
15680;BMP180;15488;48.114;11.532;2023-03-05T00:59:07;95467.00;;;10.80
15680;BMP180;15488;48.114;11.532;2023-03-05T01:01:36;95461.00;;;10.80
15680;BMP180;15488;48.114;11.532;2023-03-05T01:04:03;95462.00;;;10.80
15680;BMP180;15488;48.114;11.532;2023-03-05T01:06:31;95458.00;;;10.80
15680;BMP180;15488;48.114;11.532;2023-03-05T01:08:59;95446.00;;;10.80
15680;BMP180;15488;48.114;11.532;2023-03-05T01:11:26;95439.00;;;10.70
15680;BMP180;15488;48.114;11.532;2023-03-05T01:13:55;95444.00;;;10.80
15680;BMP180;15488;48.114;11.532;2023-03-05T01:16:24;95441.00;;;10.80
15680;BMP180;15488;48.114;11.532;2023-03-05T01:18:52;95438.00;;;10.80
15680;BMP180;15488;48.114;11.532;2023-03-05T01:21:19;95447.00;;;10.80
15680;BMP180;15488;48.114;11.532;2023-03-05T01:23:47;95439.00;;;10.80
15680;BMP180;15488;48.114;11.532;2023-03-05T01:26:15;95443.00;;;10.80
15680;BMP180;15488;48.114;11.532;2023-03-05T01:28:42;95441.00;;;10.80
15680;BMP180;15488;48.114;11.532;2023-03-05T01:31:11;95434.00;;;10.80
15680;BMP180;15488;48.114;11.532;2023-03-05T01:33:39;95431.00;;;10.90
15680;BMP180;15488;48.114;11.532;2023-03-05T01:36:07;95428.00;;;10.80
15680;BMP180;15488;48.114;11.532;2023-03-05T01:38:38;95420.00;;;10.80
15680;BMP180;15488;48.114;11.532;2023-03-05T01:41:06;95420.00;;;10.80
15680;BMP180;15488;48.114;11.532;2023-03-05T01:43:33;95416.00;;;10.80
15680;BMP180;15488;48.114;11.532;2023-03-05T01:46:27;95418.00;;;10.70
15680;BMP180;15488;48.114;11.532;2023-03-05T01:48:59;95410.00;;;10.70
15680;BMP180;15488;48.114;11.532;2023-03-05T01:51:31;95416.00;;;10.70
15680;BMP180;15488;48.114;11.532;2023-03-05T01:54:00;95415.00;;;10.70
15680;BMP180;15488;48.114;11.532;2023-03-05T01:56:29;95402.00;;;10.80
15680;BMP180;15488;48.114;11.532;2023-03-05T01:58:57;95407.00;;;10.80
15680;BMP180;15488;48.114;11.532;2023-03-05T02:01:31;95413.00;;;10.70
15680;BMP180;15488;48.114;11.532;2023-03-05T02:04:00;95406.00;;;10.80
15680;BMP180;15488;48.114;11.532;2023-03-05T02:06:28;95409.00;;;10.70
15680;BMP180;15488;48.114;11.532;2023-03-05T02:08:56;95411.00;;;10.80
15680;BMP180;15488;48.114;11.532;2023-03-05T02:11:24;95410.00;;;10.80
15680;BMP180;15488;48.114;11.532;2023-03-05T02:13:51;95401.00;;;10.80
15680;BMP180;15488;48.114;11.532;2023-03-05T02:16:19;95394.00;;;10.80
15680;BMP180;15488;48.114;11.532;2023-03-05T02:18:48;95403.00;;;10.80
15680;BMP180;15488;48.114;11.532;2023-03-05T02:21:27;95402.00;;;10.80
15680;BMP180;15488;48.114;11.532;2023-03-05T02:23:54;95400.00;;;10.80
15680;BMP180;15488;48.114;11.532;2023-03-05T02:26:22;95401.00;;;10.80
15680;BMP180;15488;48.114;11.532;2023-03-05T02:28:52;95394.00;;;10.80
15680;BMP180;15488;48.114;11.532;2023-03-05T02:31:24;95395.00;;;10.90
15680;BMP180;15488;48.114;11.532;2023-03-05T02:33:53;95392.00;;;10.80
15680;BMP180;15488;48.114;11.532;2023-03-05T02:36:23;95393.00;;;10.80
15680;BMP180;15488;48.114;11.532;2023-03-05T02:38:51;95380.00;;;10.80
15680;BMP180;15488;48.114;11.532;2023-03-05T02:41:22;95384.00;;;10.70
15680;BMP180;15488;48.114;11.532;2023-03-05T02:43:50;95379.00;;;10.70
15680;BMP180;15488;48.114;11.532;2023-03-05T02:46:17;95371.00;;;10.80
15680;BMP180;15488;48.114;11.532;2023-03-05T02:48:45;95374.00;;;10.70
15680;BMP180;15488;48.114;11.532;2023-03-05T02:51:12;95367.00;;;10.70
15680;BMP180;15488;48.114;11.532;2023-03-05T02:53:41;95367.00;;;10.80
15680;BMP180;15488;48.114;11.532;2023-03-05T02:56:09;95358.00;;;10.70
15680;BMP180;15488;48.114;11.532;2023-03-05T02:58:36;95354.00;;;10.70
15680;BMP180;15488;48.114;11.532;2023-03-05T03:01:04;95354.00;;;10.80
15680;BMP180;15488;48.114;11.532;2023-03-05T03:03:31;95354.00;;;10.80
15680;BMP180;15488;48.114;11.532;2023-03-05T03:05:59;95347.00;;;10.80
15680;BMP180;15488;48.114;11.532;2023-03-05T03:08:26;95342.00;;;10.90
15680;BMP180;15488;48.114;11.532;2023-03-05T03:10:55;95338.00;;;10.80
15680;BMP180;15488;48.114;11.532;2023-03-05T03:13:22;95338.00;;;10.80
15680;BMP180;15488;48.114;11.532;2023-03-05T03:15:50;95331.00;;;10.80
15680;BMP180;15488;48.114;11.532;2023-03-05T03:18:27;95331.00;;;10.80
15680;BMP180;15488;48.114;11.532;2023-03-05T03:20:54;95334.00;;;10.80
15680;BMP180;15488;48.114;11.532;2023-03-05T03:23:22;95334.00;;;10.80
15680;BMP180;15488;48.114;11.532;2023-03-05T03:25:49;95333.00;;;10.80
15680;BMP180;15488;48.114;11.532;2023-03-05T03:28:18;95327.00;;;10.80
15680;BMP180;15488;48.114;11.532;2023-03-05T03:30:46;95330.00;;;10.80
15680;BMP180;15488;48.114;11.532;2023-03-05T03:33:13;95322.00;;;10.80
15680;BMP180;15488;48.114;11.532;2023-03-05T03:35:43;95316.00;;;10.80
15680;BMP180;15488;48.114;11.532;2023-03-05T03:38:11;95327.00;;;10.80
15680;BMP180;15488;48.114;11.532;2023-03-05T03:40:39;95322.00;;;10.80
15680;BMP180;15488;48.114;11.532;2023-03-05T03:43:07;95324.00;;;10.80
15680;BMP180;15488;48.114;11.532;2023-03-05T03:45:40;95333.00;;;10.40
15680;BMP180;15488;48.114;11.532;2023-03-05T03:48:07;95318.00;;;10.70
15680;BMP180;15488;48.114;11.532;2023-03-05T03:50:38;95320.00;;;10.70
15680;BMP180;15488;48.114;11.532;2023-03-05T03:53:05;95312.00;;;10.70
15680;BMP180;15488;48.114;11.532;2023-03-05T03:55:33;95311.00;;;10.70
15680;BMP180;15488;48.114;11.532;2023-03-05T03:58:01;95312.00;;;10.80
15680;BMP180;15488;48.114;11.532;2023-03-05T04:00:29;95309.00;;;10.80
15680;BMP180;15488;48.114;11.532;2023-03-05T04:02:58;95300.00;;;10.80
15680;BMP180;15488;48.114;11.532;2023-03-05T04:05:25;95306.00;;;10.80
15680;BMP180;15488;48.114;11.532;2023-03-05T04:07:52;95298.00;;;10.80
15680;BMP180;15488;48.114;11.532;2023-03-05T04:10:20;95306.00;;;10.80
15680;BMP180;15488;48.114;11.532;2023-03-05T04:12:48;95294.00;;;10.80
15680;BMP180;15488;48.114;11.532;2023-03-05T04:15:15;95295.00;;;10.80
15680;BMP180;15488;48.114;11.532;2023-03-05T04:17:43;95299.00;;;10.80
15680;BMP180;15488;48.114;11.532;2023-03-05T04:20:12;95291.00;;;10.80
15680;BMP180;15488;48.114;11.532;2023-03-05T04:22:39;95283.00;;;10.90
15680;BMP180;15488;48.114;11.532;2023-03-05T04:25:07;95284.00;;;10.90
15680;BMP180;15488;48.114;11.532;2023-03-05T04:27:36;95280.00;;;10.90
15680;BMP180;15488;48.114;11.532;2023-03-05T04:30:06;95275.00;;;10.90
15680;BMP180;15488;48.114;11.532;2023-03-05T04:32:34;95281.00;;;10.90
15680;BMP180;15488;48.114;11.532;2023-03-05T04:35:02;95279.00;;;10.90
15680;BMP180;15488;48.114;11.532;2023-03-05T04:37:30;95273.00;;;10.90
15680;BMP180;15488;48.114;11.532;2023-03-05T04:39:58;95275.00;;;10.90
15680;BMP180;15488;48.114;11.532;2023-03-05T04:42:25;95275.00;;;10.90
15680;BMP180;15488;48.114;11.532;2023-03-05T04:44:53;95284.00;;;11.00
15680;BMP180;15488;48.114;11.532;2023-03-05T04:47:20;95272.00;;;11.00
15680;BMP180;15488;48.114;11.532;2023-03-05T04:49:48;95274.00;;;11.00
15680;BMP180;15488;48.114;11.532;2023-03-05T04:52:15;95268.00;;;11.00
15680;BMP180;15488;48.114;11.532;2023-03-05T04:54:45;95272.00;;;11.00
15680;BMP180;15488;48.114;11.532;2023-03-05T04:57:12;95264.00;;;11.00
15680;BMP180;15488;48.114;11.532;2023-03-05T04:59:40;95264.00;;;11.00
15680;BMP180;15488;48.114;11.532;2023-03-05T05:02:07;95263.00;;;11.00
15680;BMP180;15488;48.114;11.532;2023-03-05T05:04:35;95262.00;;;11.10
15680;BMP180;15488;48.114;11.532;2023-03-05T05:07:02;95263.00;;;11.00
15680;BMP180;15488;48.114;11.532;2023-03-05T05:09:30;95252.00;;;11.10
15680;BMP180;15488;48.114;11.532;2023-03-05T05:11:59;95250.00;;;11.10
15680;BMP180;15488;48.114;11.532;2023-03-05T05:14:26;95256.00;;;11.00
15680;BMP180;15488;48.114;11.532;2023-03-05T05:16:54;95254.00;;;11.10
15680;BMP180;15488;48.114;11.532;2023-03-05T05:19:21;95257.00;;;11.00
15680;BMP180;15488;48.114;11.532;2023-03-05T05:21:49;95247.00;;;11.00
15680;BMP180;15488;48.114;11.532;2023-03-05T05:24:16;95253.00;;;11.00
15680;BMP180;15488;48.114;11.532;2023-03-05T05:26:44;95251.00;;;11.10
15680;BMP180;15488;48.114;11.532;2023-03-05T05:29:13;95253.00;;;11.00
15680;BMP180;15488;48.114;11.532;2023-03-05T05:31:40;95252.00;;;11.10
15680;BMP180;15488;48.114;11.532;2023-03-05T05:34:08;95251.00;;;11.10
15680;BMP180;15488;48.114;11.532;2023-03-05T05:36:35;95251.00;;;11.00
15680;BMP180;15488;48.114;11.532;2023-03-05T05:39:03;95251.00;;;11.00
15680;BMP180;15488;48.114;11.532;2023-03-05T05:41:30;95254.00;;;11.00
15680;BMP180;15488;48.114;11.532;2023-03-05T05:43:57;95253.00;;;11.10
15680;BMP180;15488;48.114;11.532;2023-03-05T05:46:26;95256.00;;;11.00
15680;BMP180;15488;48.114;11.532;2023-03-05T05:48:54;95258.00;;;11.10
15680;BMP180;15488;48.114;11.532;2023-03-05T05:51:22;95254.00;;;11.10
15680;BMP180;15488;48.114;11.532;2023-03-05T05:53:50;95262.00;;;11.10
15680;BMP180;15488;48.114;11.532;2023-03-05T05:56:18;95263.00;;;11.10
15680;BMP180;15488;48.114;11.532;2023-03-05T05:58:46;95258.00;;;11.10
15680;BMP180;15488;48.114;11.532;2023-03-05T06:01:16;95254.00;;;11.10
15680;BMP180;15488;48.114;11.532;2023-03-05T06:03:45;95259.00;;;11.00
15680;BMP180;15488;48.114;11.532;2023-03-05T06:06:15;95265.00;;;11.00
15680;BMP180;15488;48.114;11.532;2023-03-05T06:08:43;95268.00;;;11.00
15680;BMP180;15488;48.114;11.532;2023-03-05T06:11:11;95257.00;;;11.00
15680;BMP180;15488;48.114;11.532;2023-03-05T06:13:39;95257.00;;;11.00
15680;BMP180;15488;48.114;11.532;2023-03-05T06:16:13;95253.00;;;11.00
15680;BMP180;15488;48.114;11.532;2023-03-05T06:18:41;95255.00;;;11.00
15680;BMP180;15488;48.114;11.532;2023-03-05T06:21:12;95246.00;;;11.10
15680;BMP180;15488;48.114;11.532;2023-03-05T06:23:40;95254.00;;;11.10
15680;BMP180;15488;48.114;11.532;2023-03-05T06:26:15;95252.00;;;11.00
15680;BMP180;15488;48.114;11.532;2023-03-05T06:28:43;95254.00;;;11.10
15680;BMP180;15488;48.114;11.532;2023-03-05T06:31:12;95258.00;;;11.10
15680;BMP180;15488;48.114;11.532;2023-03-05T06:33:40;95256.00;;;11.10
15680;BMP180;15488;48.114;11.532;2023-03-05T06:36:11;95257.00;;;11.10
15680;BMP180;15488;48.114;11.532;2023-03-05T06:38:39;95252.00;;;11.10
15680;BMP180;15488;48.114;11.532;2023-03-05T06:41:09;95251.00;;;11.10
15680;BMP180;15488;48.114;11.532;2023-03-05T06:43:38;95258.00;;;11.10
15680;BMP180;15488;48.114;11.532;2023-03-05T06:46:08;95253.00;;;11.10
15680;BMP180;15488;48.114;11.532;2023-03-05T06:48:36;95248.00;;;11.20
15680;BMP180;15488;48.114;11.532;2023-03-05T06:51:06;95247.00;;;11.20
15680;BMP180;15488;48.114;11.532;2023-03-05T06:53:39;95252.00;;;11.10
15680;BMP180;15488;48.114;11.532;2023-03-05T06:56:07;95241.00;;;11.20
15680;BMP180;15488;48.114;11.532;2023-03-05T06:58:35;95243.00;;;11.20
15680;BMP180;15488;48.114;11.532;2023-03-05T07:01:04;95238.00;;;11.20
15680;BMP180;15488;48.114;11.532;2023-03-05T07:03:32;95245.00;;;11.30
15680;BMP180;15488;48.114;11.532;2023-03-05T07:06:02;95250.00;;;11.30
15680;BMP180;15488;48.114;11.532;2023-03-05T07:08:30;95251.00;;;11.00
15680;BMP180;15488;48.114;11.532;2023-03-05T07:11:00;95244.00;;;11.30
15680;BMP180;15488;48.114;11.532;2023-03-05T07:13:28;95244.00;;;11.30
15680;BMP180;15488;48.114;11.532;2023-03-05T07:15:56;95248.00;;;11.30
15680;BMP180;15488;48.114;11.532;2023-03-05T07:18:24;95244.00;;;11.30
15680;BMP180;15488;48.114;11.532;2023-03-05T07:20:51;95245.00;;;11.30
15680;BMP180;15488;48.114;11.532;2023-03-05T07:23:20;95243.00;;;11.40
15680;BMP180;15488;48.114;11.532;2023-03-05T07:25:47;95242.00;;;11.40
15680;BMP180;15488;48.114;11.532;2023-03-05T07:28:16;95241.00;;;11.40
15680;BMP180;15488;48.114;11.532;2023-03-05T07:30:44;95235.00;;;11.40
15680;BMP180;15488;48.114;11.532;2023-03-05T07:33:11;95239.00;;;11.40
15680;BMP180;15488;48.114;11.532;2023-03-05T07:35:39;95246.00;;;11.50
15680;BMP180;15488;48.114;11.532;2023-03-05T07:38:07;95233.00;;;11.50
15680;BMP180;15488;48.114;11.532;2023-03-05T07:40:34;95239.00;;;11.40
15680;BMP180;15488;48.114;11.532;2023-03-05T07:43:02;95241.00;;;11.50
15680;BMP180;15488;48.114;11.532;2023-03-05T07:45:31;95238.00;;;11.50
15680;BMP180;15488;48.114;11.532;2023-03-05T07:47:58;95238.00;;;11.50
15680;BMP180;15488;48.114;11.532;2023-03-05T07:50:25;95244.00;;;11.60
15680;BMP180;15488;48.114;11.532;2023-03-05T07:52:53;95237.00;;;11.50
15680;BMP180;15488;48.114;11.532;2023-03-05T07:55:21;95244.00;;;11.50
15680;BMP180;15488;48.114;11.532;2023-03-05T07:57:48;95237.00;;;11.60
15680;BMP180;15488;48.114;11.532;2023-03-05T08:00:16;95234.00;;;11.50
15680;BMP180;15488;48.114;11.532;2023-03-05T08:02:45;95226.00;;;11.50
15680;BMP180;15488;48.114;11.532;2023-03-05T08:05:13;95228.00;;;11.60
15680;BMP180;15488;48.114;11.532;2023-03-05T08:07:40;95226.00;;;11.60
15680;BMP180;15488;48.114;11.532;2023-03-05T08:10:09;95224.00;;;11.60
15680;BMP180;15488;48.114;11.532;2023-03-05T08:12:37;95222.00;;;11.70
15680;BMP180;15488;48.114;11.532;2023-03-05T08:15:05;95221.00;;;11.70
15680;BMP180;15488;48.114;11.532;2023-03-05T08:17:33;95219.00;;;11.70
15680;BMP180;15488;48.114;11.532;2023-03-05T08:20:01;95217.00;;;11.70
15680;BMP180;15488;48.114;11.532;2023-03-05T08:22:31;95219.00;;;11.60
15680;BMP180;15488;48.114;11.532;2023-03-05T08:24:59;95218.00;;;11.70
15680;BMP180;15488;48.114;11.532;2023-03-05T08:27:26;95217.00;;;11.70
15680;BMP180;15488;48.114;11.532;2023-03-05T08:29:54;95212.00;;;11.70
15680;BMP180;15488;48.114;11.532;2023-03-05T08:32:21;95217.00;;;11.80
15680;BMP180;15488;48.114;11.532;2023-03-05T08:34:49;95217.00;;;11.80
15680;BMP180;15488;48.114;11.532;2023-03-05T08:37:18;95212.00;;;11.80
15680;BMP180;15488;48.114;11.532;2023-03-05T08:39:46;95210.00;;;11.80
15680;BMP180;15488;48.114;11.532;2023-03-05T08:42:13;95206.00;;;11.80
15680;BMP180;15488;48.114;11.532;2023-03-05T08:44:40;95211.00;;;11.80
15680;BMP180;15488;48.114;11.532;2023-03-05T08:47:08;95209.00;;;11.80
15680;BMP180;15488;48.114;11.532;2023-03-05T08:49:36;95202.00;;;11.90
15680;BMP180;15488;48.114;11.532;2023-03-05T08:52:04;95194.00;;;11.90
15680;BMP180;15488;48.114;11.532;2023-03-05T08:54:33;95209.00;;;11.90
15680;BMP180;15488;48.114;11.532;2023-03-05T08:57:03;95201.00;;;11.90
15680;BMP180;15488;48.114;11.532;2023-03-05T08:59:30;95201.00;;;12.00
15680;BMP180;15488;48.114;11.532;2023-03-05T09:02:00;95192.00;;;12.00
15680;BMP180;15488;48.114;11.532;2023-03-05T09:04:27;95189.00;;;11.90
15680;BMP180;15488;48.114;11.532;2023-03-05T09:06:56;95195.00;;;12.00
15680;BMP180;15488;48.114;11.532;2023-03-05T09:09:24;95187.00;;;12.10
15680;BMP180;15488;48.114;11.532;2023-03-05T09:11:53;95188.00;;;12.10
15680;BMP180;15488;48.114;11.532;2023-03-05T09:14:20;95195.00;;;12.10
15680;BMP180;15488;48.114;11.532;2023-03-05T09:16:48;95186.00;;;12.10
15680;BMP180;15488;48.114;11.532;2023-03-05T09:19:15;95185.00;;;12.20
15680;BMP180;15488;48.114;11.532;2023-03-05T09:21:43;95179.00;;;12.20
15680;BMP180;15488;48.114;11.532;2023-03-05T09:24:10;95179.00;;;12.20
15680;BMP180;15488;48.114;11.532;2023-03-05T09:26:38;95172.00;;;12.30
15680;BMP180;15488;48.114;11.532;2023-03-05T09:29:08;95181.00;;;12.20
15680;BMP180;15488;48.114;11.532;2023-03-05T09:31:36;95175.00;;;12.20
15680;BMP180;15488;48.114;11.532;2023-03-05T09:34:04;95170.00;;;12.20
15680;BMP180;15488;48.114;11.532;2023-03-05T09:36:33;95175.00;;;12.30
15680;BMP180;15488;48.114;11.532;2023-03-05T09:39:01;95171.00;;;12.30
15680;BMP180;15488;48.114;11.532;2023-03-05T09:41:36;95167.00;;;12.30
15680;BMP180;15488;48.114;11.532;2023-03-05T09:44:21;95169.00;;;12.30
15680;BMP180;15488;48.114;11.532;2023-03-05T09:46:52;95181.00;;;12.30
15680;BMP180;15488;48.114;11.532;2023-03-05T09:49:31;95175.00;;;12.30
15680;BMP180;15488;48.114;11.532;2023-03-05T09:52:06;95173.00;;;12.30
15680;BMP180;15488;48.114;11.532;2023-03-05T09:54:38;95173.00;;;12.30
15680;BMP180;15488;48.114;11.532;2023-03-05T09:57:13;95178.00;;;12.30
15680;BMP180;15488;48.114;11.532;2023-03-05T09:59:47;95163.00;;;12.30
15680;BMP180;15488;48.114;11.532;2023-03-05T10:02:18;95163.00;;;12.40
15680;BMP180;15488;48.114;11.532;2023-03-05T10:04:51;95164.00;;;12.40
15680;BMP180;15488;48.114;11.532;2023-03-05T10:07:23;95158.00;;;12.40
15680;BMP180;15488;48.114;11.532;2023-03-05T10:09:56;95157.00;;;12.30
15680;BMP180;15488;48.114;11.532;2023-03-05T10:12:31;95159.00;;;12.40
15680;BMP180;15488;48.114;11.532;2023-03-05T10:15:12;95161.00;;;12.40
15680;BMP180;15488;48.114;11.532;2023-03-05T10:17:52;95157.00;;;12.40
15680;BMP180;15488;48.114;11.532;2023-03-05T10:20:39;95151.00;;;12.40
15680;BMP180;15488;48.114;11.532;2023-03-05T10:23:24;95154.00;;;12.40
15680;BMP180;15488;48.114;11.532;2023-03-05T10:26:18;95155.00;;;12.40
15680;BMP180;15488;48.114;11.532;2023-03-05T10:28:51;95143.00;;;12.50
15680;BMP180;15488;48.114;11.532;2023-03-05T10:31:35;95141.00;;;12.50
15680;BMP180;15488;48.114;11.532;2023-03-05T10:34:32;95132.00;;;12.50
15680;BMP180;15488;48.114;11.532;2023-03-05T10:37:19;95139.00;;;12.50
15680;BMP180;15488;48.114;11.532;2023-03-05T10:40:03;95131.00;;;12.50
15680;BMP180;15488;48.114;11.532;2023-03-05T10:42:41;95133.00;;;12.60
15680;BMP180;15488;48.114;11.532;2023-03-05T10:45:14;95131.00;;;12.50
15680;BMP180;15488;48.114;11.532;2023-03-05T10:47:48;95140.00;;;12.60
15680;BMP180;15488;48.114;11.532;2023-03-05T10:50:20;95128.00;;;12.60
15680;BMP180;15488;48.114;11.532;2023-03-05T10:52:54;95120.00;;;12.60
15680;BMP180;15488;48.114;11.532;2023-03-05T10:55:33;95116.00;;;12.70
15680;BMP180;15488;48.114;11.532;2023-03-05T10:58:07;95120.00;;;12.70
15680;BMP180;15488;48.114;11.532;2023-03-05T11:00:36;95127.00;;;12.70
15680;BMP180;15488;48.114;11.532;2023-03-05T11:03:07;95104.00;;;12.80
15680;BMP180;15488;48.114;11.532;2023-03-05T11:05:44;95105.00;;;12.80
15680;BMP180;15488;48.114;11.532;2023-03-05T11:08:27;95103.00;;;12.80
15680;BMP180;15488;48.114;11.532;2023-03-05T11:11:14;95100.00;;;12.80
15680;BMP180;15488;48.114;11.532;2023-03-05T11:13:54;95098.00;;;12.80
15680;BMP180;15488;48.114;11.532;2023-03-05T11:16:24;95097.00;;;12.80
15680;BMP180;15488;48.114;11.532;2023-03-05T11:19:19;95097.00;;;12.90
15680;BMP180;15488;48.114;11.532;2023-03-05T11:22:06;95089.00;;;12.80
15680;BMP180;15488;48.114;11.532;2023-03-05T11:24:36;95083.00;;;12.90
15680;BMP180;15488;48.114;11.532;2023-03-05T11:27:21;95077.00;;;12.80
15680;BMP180;15488;48.114;11.532;2023-03-05T11:29:49;95074.00;;;12.90
15680;BMP180;15488;48.114;11.532;2023-03-05T11:32:21;95068.00;;;12.90
15680;BMP180;15488;48.114;11.532;2023-03-05T11:34:50;95066.00;;;12.90
15680;BMP180;15488;48.114;11.532;2023-03-05T11:37:26;95072.00;;;12.90
15680;BMP180;15488;48.114;11.532;2023-03-05T11:40:17;95071.00;;;12.90
15680;BMP180;15488;48.114;11.532;2023-03-05T11:42:51;95073.00;;;13.00
15680;BMP180;15488;48.114;11.532;2023-03-05T11:45:20;95068.00;;;13.00
15680;BMP180;15488;48.114;11.532;2023-03-05T11:47:50;95065.00;;;13.00
15680;BMP180;15488;48.114;11.532;2023-03-05T11:50:22;95058.00;;;13.00
15680;BMP180;15488;48.114;11.532;2023-03-05T11:52:53;95062.00;;;13.00
15680;BMP180;15488;48.114;11.532;2023-03-05T11:55:26;95060.00;;;13.00
15680;BMP180;15488;48.114;11.532;2023-03-05T11:58:02;95052.00;;;13.10
15680;BMP180;15488;48.114;11.532;2023-03-05T12:00:34;95047.00;;;13.10
15680;BMP180;15488;48.114;11.532;2023-03-05T12:03:06;95042.00;;;13.10
15680;BMP180;15488;48.114;11.532;2023-03-05T12:05:42;95031.00;;;13.20
15680;BMP180;15488;48.114;11.532;2023-03-05T12:08:13;95029.00;;;13.20
15680;BMP180;15488;48.114;11.532;2023-03-05T12:10:42;95030.00;;;13.20
15680;BMP180;15488;48.114;11.532;2023-03-05T12:13:13;95030.00;;;13.30
15680;BMP180;15488;48.114;11.532;2023-03-05T12:15:48;95025.00;;;13.30
15680;BMP180;15488;48.114;11.532;2023-03-05T12:18:32;95024.00;;;13.40
15680;BMP180;15488;48.114;11.532;2023-03-05T12:21:06;95021.00;;;13.40
15680;BMP180;15488;48.114;11.532;2023-03-05T12:23:45;95018.00;;;13.50
15680;BMP180;15488;48.114;11.532;2023-03-05T12:28:55;95012.00;;;13.50
15680;BMP180;15488;48.114;11.532;2023-03-05T12:31:28;95000.00;;;13.60
15680;BMP180;15488;48.114;11.532;2023-03-05T12:37:08;95001.00;;;13.60
15680;BMP180;15488;48.114;11.532;2023-03-05T12:39:47;94999.00;;;13.60
15680;BMP180;15488;48.114;11.532;2023-03-05T12:42:43;94993.00;;;13.70
15680;BMP180;15488;48.114;11.532;2023-03-05T12:45:28;94998.00;;;13.70
15680;BMP180;15488;48.114;11.532;2023-03-05T12:48:33;94985.00;;;13.70
15680;BMP180;15488;48.114;11.532;2023-03-05T12:53:56;94978.00;;;13.80
15680;BMP180;15488;48.114;11.532;2023-03-05T12:56:29;94971.00;;;13.80
15680;BMP180;15488;48.114;11.532;2023-03-05T12:58:59;94974.00;;;13.90
15680;BMP180;15488;48.114;11.532;2023-03-05T13:01:35;94970.00;;;13.90
15680;BMP180;15488;48.114;11.532;2023-03-05T13:04:13;94970.00;;;13.90
15680;BMP180;15488;48.114;11.532;2023-03-05T13:06:42;94970.00;;;14.00
15680;BMP180;15488;48.114;11.532;2023-03-05T13:09:18;94970.00;;;14.00
15680;BMP180;15488;48.114;11.532;2023-03-05T13:11:51;94965.00;;;14.00
15680;BMP180;15488;48.114;11.532;2023-03-05T13:14:31;94956.00;;;14.00
15680;BMP180;15488;48.114;11.532;2023-03-05T13:16:59;94957.00;;;14.00
15680;BMP180;15488;48.114;11.532;2023-03-05T13:19:28;94952.00;;;14.10
15680;BMP180;15488;48.114;11.532;2023-03-05T13:22:00;94945.00;;;14.10
15680;BMP180;15488;48.114;11.532;2023-03-05T13:24:29;94951.00;;;14.20
15680;BMP180;15488;48.114;11.532;2023-03-05T13:26:56;94953.00;;;14.20
15680;BMP180;15488;48.114;11.532;2023-03-05T13:29:25;94948.00;;;14.20
15680;BMP180;15488;48.114;11.532;2023-03-05T13:31:57;94952.00;;;14.30
15680;BMP180;15488;48.114;11.532;2023-03-05T13:34:26;94954.00;;;14.30
15680;BMP180;15488;48.114;11.532;2023-03-05T13:36:58;94942.00;;;14.30
15680;BMP180;15488;48.114;11.532;2023-03-05T13:39:29;94952.00;;;14.40
15680;BMP180;15488;48.114;11.532;2023-03-05T13:41:59;94942.00;;;14.40
15680;BMP180;15488;48.114;11.532;2023-03-05T13:44:26;94942.00;;;14.50
15680;BMP180;15488;48.114;11.532;2023-03-05T13:47:07;94940.00;;;14.50
15680;BMP180;15488;48.114;11.532;2023-03-05T13:49:34;94937.00;;;14.50
15680;BMP180;15488;48.114;11.532;2023-03-05T13:52:02;94935.00;;;14.60
15680;BMP180;15488;48.114;11.532;2023-03-05T13:54:32;94931.00;;;14.60
15680;BMP180;15488;48.114;11.532;2023-03-05T13:57:01;94934.00;;;14.60
15680;BMP180;15488;48.114;11.532;2023-03-05T13:59:31;94932.00;;;14.60
15680;BMP180;15488;48.114;11.532;2023-03-05T14:02:00;94927.00;;;14.60
15680;BMP180;15488;48.114;11.532;2023-03-05T14:04:33;94929.00;;;14.60
15680;BMP180;15488;48.114;11.532;2023-03-05T14:07:02;94923.00;;;14.60
15680;BMP180;15488;48.114;11.532;2023-03-05T14:09:43;94918.00;;;14.60
15680;BMP180;15488;48.114;11.532;2023-03-05T14:12:24;94926.00;;;14.60
15680;BMP180;15488;48.114;11.532;2023-03-05T14:14:53;94921.00;;;14.60
15680;BMP180;15488;48.114;11.532;2023-03-05T14:17:32;94921.00;;;14.60
15680;BMP180;15488;48.114;11.532;2023-03-05T14:20:07;94918.00;;;14.50
15680;BMP180;15488;48.114;11.532;2023-03-05T14:22:37;94915.00;;;14.50
15680;BMP180;15488;48.114;11.532;2023-03-05T14:27:49;94904.00;;;14.50